Time;durP1;ratioP1;P1;durP2;ratioP2;P2;SDS_P1;SDS_P2;PMS_P1;PMS_P2;Temp;Humidity;BMP_temperature;BMP_pressure;BME280_temperature;BME280_humidity;BME280_pressure;Samples;Min_cycle;Max_cycle;Signal;HPM_P1;HPM_P2
2022/07/01 00:01:49;;;;;;;8.90;5.60;;;20.80;99.90;;;;;;4998825;28;20432;-83
2022/07/01 00:04:17;;;;;;;10.63;5.90;;;20.70;99.90;;;;;;5009819;28;20403;-82
2022/07/01 00:06:45;;;;;;;9.75;5.82;;;20.70;99.90;;;;;;4996155;28;20412;-84
2022/07/01 00:09:12;;;;;;;6.50;5.10;;;20.80;99.90;;;;;;4928683;28;2053371;-83
2022/07/01 00:11:40;;;;;;;7.95;4.95;;;20.70;99.90;;;;;;5000685;28;20453;-84
2022/07/01 00:14:08;;;;;;;6.78;5.03;;;20.60;99.90;;;;;;5000840;28;20495;-83
2022/07/01 00:16:36;;;;;;;10.07;5.72;;;20.60;99.90;;;;;;5009045;28;20409;-83
2022/07/01 00:19:05;;;;;;;7.63;5.35;;;20.60;99.90;;;;;;5004437;28;20487;-84
2022/07/01 00:21:33;;;;;;;8.32;5.38;;;20.70;99.90;;;;;;5005800;28;20459;-83
2022/07/01 00:24:01;;;;;;;7.57;5.20;;;20.60;99.90;;;;;;5002132;28;20407;-83
2022/07/01 00:26:29;;;;;;;8.13;5.67;;;20.60;99.90;;;;;;5002431;28;20400;-84
2022/07/01 00:28:57;;;;;;;7.72;5.18;;;20.50;99.90;;;;;;4999833;28;20426;-83
2022/07/01 00:31:25;;;;;;;6.70;5.32;;;20.50;99.90;;;;;;5008625;28;20491;-84
2022/07/01 00:33:52;;;;;;;10.35;5.40;;;20.50;99.90;;;;;;5006745;28;20498;-84
2022/07/01 00:36:20;;;;;;;6.82;5.10;;;20.40;99.90;;;;;;5002830;28;20405;-83
2022/07/01 00:38:52;;;;;;;8.43;5.30;;;20.40;99.90;;;;;;5004398;28;20795;-84
2022/07/01 00:41:19;;;;;;;7.47;5.15;;;20.40;99.90;;;;;;5005745;28;20461;-84
2022/07/01 00:43:47;;;;;;;8.18;5.13;;;20.40;99.90;;;;;;5009622;28;20407;-84
2022/07/01 00:46:24;;;;;;;8.40;4.97;;;20.40;99.90;;;;;;5006825;28;20420;-83
2022/07/01 00:48:55;;;;;;;9.53;5.30;;;20.40;99.90;;;;;;4985616;28;20401;-83
2022/07/01 00:51:23;;;;;;;9.43;5.22;;;20.40;99.90;;;;;;4997132;28;20423;-83
2022/07/01 00:53:50;;;;;;;7.88;5.10;;;20.30;99.90;;;;;;5005702;28;20411;-84
2022/07/01 00:56:19;;;;;;;8.25;5.30;;;20.20;99.90;;;;;;5006108;28;20493;-84
2022/07/01 00:58:46;;;;;;;8.38;5.35;;;20.20;99.90;;;;;;4997473;28;20397;-83
2022/07/01 01:01:14;;;;;;;9.38;5.10;;;20.20;99.90;;;;;;4991384;28;20540;-83
2022/07/01 01:03:42;;;;;;;8.05;5.18;;;20.20;99.90;;;;;;4999902;28;20403;-84
2022/07/01 01:06:10;;;;;;;7.77;5.30;;;20.20;99.90;;;;;;4996551;28;20973;-84
2022/07/01 01:08:38;;;;;;;7.35;4.70;;;20.10;99.90;;;;;;4997035;28;20418;-84
2022/07/01 01:11:06;;;;;;;8.45;4.80;;;20.10;99.90;;;;;;5002807;28;20904;-83
2022/07/01 01:13:33;;;;;;;8.73;5.00;;;20.10;99.90;;;;;;5000109;28;20937;-83
2022/07/01 01:16:02;;;;;;;10.00;4.80;;;20.00;99.90;;;;;;5007924;28;20417;-84
2022/07/01 01:18:29;;;;;;;8.50;4.63;;;20.00;99.90;;;;;;5008867;28;20415;-84
2022/07/01 01:20:57;;;;;;;10.47;5.37;;;20.00;99.90;;;;;;5001116;28;20403;-84
2022/07/01 01:23:24;;;;;;;7.85;4.53;;;20.00;99.90;;;;;;5001780;28;20401;-84
2022/07/01 01:25:52;;;;;;;8.38;5.00;;;19.90;99.90;;;;;;5007049;28;20448;-83
2022/07/01 01:28:24;;;;;;;9.85;5.57;;;19.90;99.90;;;;;;4992334;28;20483;-83
2022/07/01 01:30:52;;;;;;;9.95;4.60;;;19.90;99.90;;;;;;5001141;28;20408;-84
2022/07/01 01:33:19;;;;;;;7.90;4.63;;;19.90;99.90;;;;;;4990264;28;20409;-83
2022/07/01 01:35:47;;;;;;;6.20;4.90;;;19.80;99.90;;;;;;5001736;28;20766;-83
2022/07/01 01:38:14;;;;;;;9.73;4.37;;;19.90;99.90;;;;;;5000623;28;20401;-83
2022/07/01 01:40:44;;;;;;;7.65;4.60;;;19.80;99.90;;;;;;4999562;28;20796;-83
2022/07/01 01:43:11;;;;;;;6.80;4.60;;;19.80;99.90;;;;;;5000016;28;20395;-83
2022/07/01 01:45:40;;;;;;;7.50;4.50;;;19.80;99.90;;;;;;4997408;28;20403;-84
2022/07/01 01:48:07;;;;;;;7.47;4.38;;;19.80;99.90;;;;;;4999054;28;20387;-83
2022/07/01 01:50:35;;;;;;;5.97;4.60;;;19.70;99.90;;;;;;5007860;28;20902;-84
2022/07/01 01:53:02;;;;;;;7.72;4.68;;;19.70;99.90;;;;;;5004291;28;20490;-84
2022/07/01 01:55:30;;;;;;;7.85;4.65;;;19.70;99.90;;;;;;4996149;28;20571;-83
2022/07/01 01:57:57;;;;;;;6.13;4.88;;;19.70;99.90;;;;;;4998999;28;20404;-83
2022/07/01 02:00:25;;;;;;;7.85;4.38;;;19.70;99.90;;;;;;5009202;28;20509;-83
2022/07/01 02:02:53;;;;;;;9.05;4.72;;;19.60;99.90;;;;;;5000365;28;20757;-83
2022/07/01 02:05:21;;;;;;;8.48;4.45;;;19.60;99.90;;;;;;4999168;28;20510;-83
2022/07/01 02:07:48;;;;;;;7.13;4.38;;;19.60;99.90;;;;;;5004966;28;20413;-83
2022/07/01 02:10:16;;;;;;;8.48;4.75;;;19.60;99.90;;;;;;5006022;28;20403;-83
2022/07/01 02:12:43;;;;;;;7.30;4.82;;;19.60;99.90;;;;;;4997353;28;20785;-83
2022/07/01 02:15:11;;;;;;;8.48;5.10;;;19.60;99.90;;;;;;5006818;28;20446;-83
2022/07/01 02:17:38;;;;;;;6.57;4.30;;;19.50;99.90;;;;;;5008034;28;20404;-83
2022/07/01 02:20:07;;;;;;;8.25;5.20;;;19.50;99.90;;;;;;5006614;28;20954;-83
2022/07/01 02:22:34;;;;;;;7.65;4.70;;;19.50;99.90;;;;;;4995344;28;20453;-84
2022/07/01 02:25:03;;;;;;;7.55;4.53;;;19.50;99.90;;;;;;4999597;28;20463;-84
2022/07/01 02:27:31;;;;;;;7.10;4.20;;;19.50;99.90;;;;;;5007764;28;20415;-84
2022/07/01 02:29:59;;;;;;;8.57;4.60;;;19.50;99.90;;;;;;5006780;28;20397;-84
2022/07/01 02:32:27;;;;;;;8.75;4.63;;;19.50;99.90;;;;;;4999701;28;20878;-84
2022/07/01 02:34:54;;;;;;;5.70;4.10;;;19.50;99.90;;;;;;4998512;28;20399;-83
2022/07/01 02:37:22;;;;;;;9.02;5.20;;;19.50;99.90;;;;;;4992953;28;20407;-84
2022/07/01 02:39:50;;;;;;;7.55;4.40;;;19.40;99.90;;;;;;4997361;28;20488;-84
2022/07/01 02:42:25;;;;;;;9.35;4.32;;;19.40;99.90;;;;;;4991050;28;20425;-84
2022/07/01 02:44:54;;;;;;;8.93;4.35;;;19.40;99.90;;;;;;4994818;28;20862;-84
2022/07/01 02:47:22;;;;;;;5.90;4.30;;;19.40;99.90;;;;;;5008994;28;20498;-84
2022/07/01 02:49:55;;;;;;;10.15;4.60;;;19.40;99.90;;;;;;5009229;28;20403;-84
2022/07/01 02:52:23;;;;;;;6.82;4.13;;;19.40;99.90;;;;;;5007196;28;20705;-84
2022/07/01 02:54:50;;;;;;;7.83;4.50;;;19.40;99.90;;;;;;4992353;28;20409;-84
2022/07/01 02:57:18;;;;;;;8.18;4.45;;;19.40;99.90;;;;;;5011357;28;20414;-83
2022/07/01 02:59:45;;;;;;;7.32;4.53;;;19.40;99.90;;;;;;5012512;28;20909;-84
2022/07/01 03:02:13;;;;;;;8.03;4.77;;;19.40;99.90;;;;;;4999165;28;20413;-83
2022/07/01 03:04:41;;;;;;;7.32;4.30;;;19.40;99.90;;;;;;5000109;28;20406;-83
2022/07/01 03:07:09;;;;;;;8.13;4.53;;;19.40;99.90;;;;;;5009603;28;20404;-84
2022/07/01 03:09:39;;;;;;;7.22;4.78;;;19.40;99.90;;;;;;5003917;28;20418;-83
2022/07/01 03:12:27;;;;;;;6.32;4.00;;;19.40;99.90;;;;;;5002251;28;20467;-83
2022/07/01 03:14:57;;;;;;;5.80;4.07;;;19.40;99.90;;;;;;5018512;28;20405;-84
2022/07/01 03:17:27;;;;;;;5.45;3.85;;;19.50;99.90;;;;;;5008102;28;20785;-83
2022/07/01 03:19:56;;;;;;;5.67;3.73;;;19.50;99.90;;;;;;5012190;28;20892;-83
2022/07/01 03:22:29;;;;;;;7.40;4.28;;;19.50;99.90;;;;;;5008429;28;20436;-84
2022/07/01 03:24:57;;;;;;;8.33;4.20;;;19.60;99.90;;;;;;5007301;28;20415;-83
2022/07/01 03:27:25;;;;;;;7.25;4.10;;;19.60;99.90;;;;;;5005153;28;20412;-83
2022/07/01 03:29:53;;;;;;;6.65;4.40;;;19.60;99.90;;;;;;5003747;28;20481;-84
2022/07/01 03:32:21;;;;;;;5.80;4.03;;;19.50;99.90;;;;;;4998160;28;20412;-83
2022/07/01 03:34:50;;;;;;;7.47;4.30;;;19.40;99.90;;;;;;5008730;28;20760;-83
2022/07/01 03:37:19;;;;;;;4.30;3.90;;;19.50;99.90;;;;;;4996004;28;20451;-83
2022/07/01 03:39:48;;;;;;;6.32;4.15;;;19.50;99.90;;;;;;5007874;28;20744;-84
2022/07/01 03:42:17;;;;;;;6.57;4.30;;;19.50;99.90;;;;;;5002093;28;20954;-83
2022/07/01 03:44:45;;;;;;;6.00;4.50;;;19.50;99.90;;;;;;5009273;28;20404;-83
2022/07/01 03:47:13;;;;;;;7.90;4.95;;;19.50;99.90;;;;;;5004702;28;20409;-82
2022/07/01 03:49:41;;;;;;;9.73;5.32;;;19.50;99.90;;;;;;5003059;28;20843;-83
2022/07/01 03:52:08;;;;;;;9.55;5.60;;;19.60;99.90;;;;;;5009559;28;20405;-84
2022/07/01 03:54:38;;;;;;;9.98;5.28;;;19.60;99.90;;;;;;5006963;28;20439;-83
2022/07/01 03:57:09;;;;;;;7.33;4.43;;;19.60;99.90;;;;;;5008999;28;20813;-83
2022/07/01 03:59:38;;;;;;;7.20;5.07;;;19.60;99.90;;;;;;5001377;28;20440;-84
2022/07/01 04:02:07;;;;;;;7.20;4.90;;;19.60;99.90;;;;;;5003023;28;20487;-84
2022/07/01 04:04:35;;;;;;;7.90;5.10;;;19.60;99.90;;;;;;5009768;28;20774;-83
2022/07/01 04:07:06;;;;;;;7.90;4.40;;;19.60;99.90;;;;;;5002428;28;20491;-84
2022/07/01 04:09:35;;;;;;;7.68;5.50;;;19.70;99.90;;;;;;5002724;28;20439;-84
2022/07/01 04:12:03;;;;;;;7.53;4.70;;;19.70;99.90;;;;;;5010398;28;20395;-84
2022/07/01 04:14:31;;;;;;;6.82;4.80;;;19.70;99.90;;;;;;5001615;28;20429;-84
2022/07/01 04:16:58;;;;;;;7.10;5.03;;;19.70;99.90;;;;;;4998226;28;20409;-83
2022/07/01 04:19:26;;;;;;;7.47;4.60;;;19.70;99.90;;;;;;5002634;28;20428;-83
2022/07/01 04:24:40;;;;;;;9.95;4.70;;;19.80;99.90;;;;;;5002759;28;20403;-83
2022/07/01 04:27:09;;;;;;;12.73;5.23;;;19.80;99.90;;;;;;5005004;28;20408;-84
2022/07/01 04:29:36;;;;;;;7.77;5.17;;;19.80;99.90;;;;;;5006779;28;20406;-84
2022/07/01 04:32:04;;;;;;;8.23;5.00;;;19.80;99.90;;;;;;5007328;28;20495;-84
2022/07/01 04:34:33;;;;;;;7.45;4.70;;;19.90;99.90;;;;;;4999305;28;20415;-84
2022/07/01 04:37:00;;;;;;;6.90;4.80;;;19.90;99.90;;;;;;4975521;28;20873;-84
2022/07/01 04:39:28;;;;;;;18.38;5.60;;;20.00;99.90;;;;;;4996757;28;20913;-83
2022/07/01 04:42:01;;;;;;;6.80;5.07;;;20.00;99.90;;;;;;5009456;28;20947;-83
2022/07/01 04:44:36;;;;;;;6.80;4.90;;;20.00;99.90;;;;;;5004705;28;20417;-83
2022/07/01 04:47:10;;;;;;;7.32;5.00;;;20.10;99.90;;;;;;4996425;28;20410;-84
2022/07/01 04:49:38;;;;;;;6.80;4.63;;;20.10;99.90;;;;;;5001855;28;20403;-83
2022/07/01 04:52:06;;;;;;;8.27;5.15;;;20.10;99.90;;;;;;5009657;28;20433;-84
2022/07/01 04:54:33;;;;;;;10.00;5.20;;;20.20;99.90;;;;;;4992235;28;20940;-83
2022/07/01 04:57:02;;;;;;;10.23;4.95;;;20.20;99.90;;;;;;5000080;28;20426;-84
2022/07/01 04:59:29;;;;;;;9.23;5.05;;;20.30;99.90;;;;;;5004384;28;20908;-84
2022/07/01 05:01:58;;;;;;;8.30;4.80;;;20.30;99.90;;;;;;5003769;28;20401;-83
2022/07/01 05:04:27;;;;;;;7.47;5.28;;;20.30;99.90;;;;;;4997785;28;20415;-84
2022/07/01 05:06:55;;;;;;;7.18;4.80;;;20.40;99.90;;;;;;5010515;28;20494;-84
2022/07/01 05:09:23;;;;;;;10.37;5.80;;;20.50;99.90;;;;;;4996611;28;20404;-83
2022/07/01 05:11:53;;;;;;;8.60;5.33;;;20.50;99.90;;;;;;5005053;28;20454;-83
2022/07/01 05:14:21;;;;;;;7.05;5.00;;;20.60;99.90;;;;;;5000291;28;20387;-84
2022/07/01 05:16:48;;;;;;;6.97;5.25;;;20.60;99.90;;;;;;4997096;28;20634;-84
2022/07/01 05:22:02;;;;;;;8.77;5.47;;;20.70;99.90;;;;;;4997214;28;20389;-84
2022/07/01 05:24:32;;;;;;;7.53;5.00;;;20.70;99.90;;;;;;5001038;28;20889;-83
2022/07/01 05:27:01;;;;;;;6.60;4.95;;;20.80;99.90;;;;;;4999066;28;20389;-84
2022/07/01 05:29:29;;;;;;;7.85;5.20;;;20.80;99.90;;;;;;5001523;28;20401;-84
2022/07/01 05:31:56;;;;;;;7.97;5.20;;;20.80;99.90;;;;;;5008521;28;20741;-84
2022/07/01 05:34:24;;;;;;;7.13;5.47;;;20.80;99.90;;;;;;5006926;28;20388;-84
2022/07/01 05:36:52;;;;;;;7.05;5.88;;;20.90;99.90;;;;;;5002498;28;20420;-84
2022/07/01 05:39:20;;;;;;;8.45;5.80;;;20.90;99.90;;;;;;5005788;28;20410;-83
2022/07/01 05:41:47;;;;;;;7.70;5.43;;;21.00;99.90;;;;;;5001562;28;20404;-84
2022/07/01 05:44:15;;;;;;;10.82;5.38;;;21.00;99.90;;;;;;4997961;28;20821;-84
2022/07/01 05:46:43;;;;;;;10.15;7.05;;;21.00;99.90;;;;;;5001683;28;20408;-83
2022/07/01 05:49:10;;;;;;;7.03;5.78;;;21.10;99.90;;;;;;5008396;28;20411;-84
2022/07/01 05:51:44;;;;;;;11.00;5.85;;;21.10;99.90;;;;;;5006752;28;20491;-84
2022/07/01 05:54:13;;;;;;;7.82;6.03;;;21.20;99.90;;;;;;5005581;28;20403;-84
2022/07/01 05:56:41;;;;;;;9.10;6.00;;;21.10;99.90;;;;;;4991391;28;20494;-84
2022/07/01 05:59:08;;;;;;;7.35;5.32;;;21.20;99.90;;;;;;5009546;28;20403;-84
2022/07/01 06:01:36;;;;;;;6.82;5.75;;;21.30;99.90;;;;;;5001878;28;20407;-84
2022/07/01 06:04:03;;;;;;;7.78;5.38;;;21.40;99.90;;;;;;4991178;28;20445;-85
2022/07/01 06:06:31;;;;;;;7.47;5.60;;;21.40;99.90;;;;;;5002391;28;20403;-84
2022/07/01 06:08:58;;;;;;;6.40;5.80;;;21.50;99.90;;;;;;5000058;28;20452;-85
2022/07/01 06:11:27;;;;;;;10.53;6.20;;;21.40;99.90;;;;;;5006350;28;20403;-85
2022/07/01 06:13:54;;;;;;;7.78;5.75;;;21.50;99.90;;;;;;4998175;28;20501;-84
2022/07/01 06:16:22;;;;;;;9.27;6.00;;;21.40;99.90;;;;;;5003429;28;20403;-84
2022/07/01 06:18:58;;;;;;;7.10;5.38;;;21.50;99.90;;;;;;4999447;28;20900;-85
2022/07/01 06:21:25;;;;;;;7.95;6.20;;;21.50;99.90;;;;;;5008377;28;20445;-85
2022/07/01 06:23:53;;;;;;;7.00;5.68;;;21.60;99.90;;;;;;4999679;28;20463;-84
2022/07/01 06:26:20;;;;;;;9.48;5.57;;;21.70;99.90;;;;;;5005657;28;20395;-85
2022/07/01 06:28:48;;;;;;;7.97;5.53;;;21.80;99.90;;;;;;5004169;28;20911;-85
2022/07/01 06:31:16;;;;;;;8.32;6.03;;;21.90;99.90;;;;;;5004662;28;20396;-84
2022/07/01 06:33:44;;;;;;;9.13;5.63;;;22.00;99.90;;;;;;5009887;28;20490;-84
2022/07/01 06:36:13;;;;;;;8.80;5.97;;;22.10;99.90;;;;;;5002637;28;20405;-84
2022/07/01 06:38:41;;;;;;;7.20;6.07;;;22.10;99.90;;;;;;4996289;28;20405;-85
2022/07/01 06:41:26;;;;;;;7.37;6.03;;;22.10;99.90;;;;;;5010284;28;20408;-86
2022/07/01 06:43:59;;;;;;;10.48;5.68;;;22.10;99.90;;;;;;5012411;28;20413;-85
2022/07/01 06:46:27;;;;;;;9.27;6.80;;;22.20;99.90;;;;;;5011524;28;20425;-85
2022/07/01 06:48:56;;;;;;;8.95;6.28;;;22.30;99.90;;;;;;5012025;28;20487;-85
2022/07/01 06:51:24;;;;;;;8.00;5.88;;;22.30;99.90;;;;;;5008311;28;20391;-85
2022/07/01 06:53:52;;;;;;;7.97;6.00;;;22.30;99.90;;;;;;5010563;28;20453;-85
2022/07/01 06:56:20;;;;;;;9.55;6.13;;;22.30;99.90;;;;;;5011706;28;20476;-85
2022/07/01 06:58:47;;;;;;;9.38;6.20;;;22.30;99.90;;;;;;5009175;28;20412;-84
2022/07/01 07:01:16;;;;;;;9.10;5.63;;;22.30;99.90;;;;;;5008792;28;20455;-86
2022/07/01 07:03:43;;;;;;;8.27;6.20;;;22.30;99.90;;;;;;5009271;28;20429;-84
2022/07/01 07:06:11;;;;;;;8.20;6.40;;;22.30;99.90;;;;;;5010710;28;20391;-84
2022/07/01 07:08:39;;;;;;;9.30;6.00;;;22.40;99.90;;;;;;4993996;28;20399;-84
2022/07/01 07:11:08;;;;;;;9.05;6.30;;;22.50;99.90;;;;;;5003684;28;20484;-86
2022/07/01 07:13:36;;;;;;;6.90;5.85;;;22.50;99.90;;;;;;5002623;28;20403;-85
2022/07/01 07:16:04;;;;;;;8.90;6.00;;;22.40;99.90;;;;;;5009394;28;20413;-86
2022/07/01 07:18:32;;;;;;;9.87;6.20;;;22.50;99.90;;;;;;5010162;28;20405;-86
2022/07/01 07:21:00;;;;;;;8.65;5.88;;;22.50;99.90;;;;;;5008910;28;20751;-85
2022/07/01 07:23:27;;;;;;;7.05;5.63;;;22.60;99.90;;;;;;5007569;28;20404;-85
2022/07/01 07:25:55;;;;;;;7.85;6.00;;;22.60;99.90;;;;;;4999715;28;20490;-85
2022/07/01 07:28:23;;;;;;;6.67;5.80;;;22.70;99.90;;;;;;5006096;28;20475;-85
2022/07/01 07:30:51;;;;;;;7.43;5.93;;;22.70;99.90;;;;;;5000702;28;20440;-86
2022/07/01 07:33:19;;;;;;;8.30;6.20;;;22.80;99.90;;;;;;4997231;28;20403;-85
2022/07/01 07:35:47;;;;;;;9.02;6.10;;;22.80;99.90;;;;;;5011172;28;20762;-84
2022/07/01 07:38:14;;;;;;;9.30;5.90;;;22.80;99.90;;;;;;5011834;28;20415;-86
2022/07/01 07:40:42;;;;;;;8.18;6.30;;;22.80;99.90;;;;;;5009495;28;20480;-87
2022/07/01 07:43:10;;;;;;;9.67;6.07;;;22.90;99.90;;;;;;5001642;28;20782;-84
2022/07/01 07:45:37;;;;;;;9.88;6.18;;;22.90;99.90;;;;;;5012247;28;20419;-85
2022/07/01 07:48:06;;;;;;;7.93;6.00;;;22.90;99.90;;;;;;4999288;28;20401;-85
2022/07/01 07:50:33;;;;;;;9.13;6.32;;;22.90;99.90;;;;;;5010749;28;20418;-86
2022/07/01 07:53:01;;;;;;;8.87;6.43;;;23.00;99.90;;;;;;5006782;28;20409;-85
2022/07/01 07:55:29;;;;;;;9.23;6.18;;;22.90;99.90;;;;;;4998606;28;20408;-85
2022/07/01 07:57:57;;;;;;;10.23;6.93;;;22.90;99.90;;;;;;4999415;28;20408;-86
2022/07/01 08:00:24;;;;;;;9.57;6.47;;;22.90;99.90;;;;;;4997230;28;20401;-85
2022/07/01 08:02:52;;;;;;;8.32;6.18;;;23.00;99.90;;;;;;5008476;28;20396;-86
2022/07/01 08:05:20;;;;;;;9.35;6.28;;;23.10;99.90;;;;;;5009287;28;20412;-84
2022/07/01 08:07:48;;;;;;;9.05;6.72;;;23.10;99.90;;;;;;5004826;28;20404;-86
2022/07/01 08:10:17;;;;;;;7.38;6.20;;;23.20;99.90;;;;;;5008994;28;20413;-86
2022/07/01 08:12:45;;;;;;;11.05;6.82;;;23.20;99.90;;;;;;4996253;28;20408;-85
2022/07/01 08:15:12;;;;;;;9.83;6.70;;;23.40;99.90;;;;;;5008048;28;20391;-87
2022/07/01 08:17:40;;;;;;;8.63;6.53;;;23.50;99.90;;;;;;5005947;28;20961;-86
2022/07/01 08:20:08;;;;;;;11.10;6.38;;;23.50;99.90;;;;;;4994839;28;20393;-86
2022/07/01 08:22:37;;;;;;;8.35;6.70;;;23.50;99.90;;;;;;4991877;28;20454;-86
2022/07/01 08:25:05;;;;;;;9.27;6.70;;;23.60;99.90;;;;;;4998579;28;20492;-85
2022/07/01 08:27:33;;;;;;;12.35;6.70;;;23.70;99.90;;;;;;5006839;28;20405;-84
2022/07/01 08:30:01;;;;;;;10.52;7.03;;;23.70;99.90;;;;;;5009746;28;20416;-86
2022/07/01 08:32:29;;;;;;;9.98;6.32;;;23.80;99.90;;;;;;5003296;28;20413;-85
2022/07/01 08:34:57;;;;;;;7.78;6.05;;;24.00;99.90;;;;;;5009869;28;20411;-86
2022/07/01 08:37:25;;;;;;;10.15;6.38;;;24.00;99.90;;;;;;5010536;28;20468;-85
2022/07/01 08:39:52;;;;;;;9.00;6.15;;;23.90;99.90;;;;;;5008063;28;20412;-86
2022/07/01 08:42:20;;;;;;;7.82;6.18;;;24.00;99.90;;;;;;4999536;28;20402;-85
2022/07/01 08:44:47;;;;;;;7.15;5.90;;;24.00;99.90;;;;;;5001365;28;20778;-85
2022/07/01 08:47:15;;;;;;;10.63;6.75;;;24.10;99.90;;;;;;5002435;28;20399;-85
2022/07/01 08:49:44;;;;;;;12.63;6.57;;;24.10;99.90;;;;;;4998794;28;20504;-86
2022/07/01 08:52:11;;;;;;;7.00;6.25;;;24.20;99.90;;;;;;5008710;28;20411;-86
2022/07/01 08:54:40;;;;;;;7.07;6.38;;;24.30;99.90;;;;;;5001213;28;20398;-85
2022/07/01 08:57:08;;;;;;;8.85;6.32;;;24.30;99.90;;;;;;4991854;28;20417;-86
2022/07/01 08:59:37;;;;;;;7.90;6.43;;;24.40;99.90;;;;;;4998450;28;20496;-86
2022/07/01 09:02:05;;;;;;;7.88;6.35;;;24.50;99.90;;;;;;5005234;28;20399;-86
2022/07/01 09:04:33;;;;;;;7.43;6.40;;;24.40;99.90;;;;;;5008745;28;20436;-87
2022/07/01 09:07:09;;;;;;;8.07;6.50;;;24.40;99.90;;;;;;5001590;28;20784;-86
2022/07/01 09:09:39;;;;;;;10.38;6.40;;;24.60;99.90;;;;;;4997891;28;20413;-87
2022/07/01 09:12:07;;;;;;;9.20;6.53;;;24.70;99.90;;;;;;5009745;28;20413;-87
2022/07/01 09:14:36;;;;;;;9.07;7.00;;;24.90;99.90;;;;;;5000245;28;20421;-86
2022/07/01 09:17:06;;;;;;;11.02;6.50;;;24.90;99.90;;;;;;4999248;28;20389;-86
2022/07/01 09:19:36;;;;;;;12.23;6.90;;;25.00;99.90;;;;;;4992257;28;20807;-86
2022/07/01 09:22:08;;;;;;;9.37;6.30;;;25.10;99.90;;;;;;5000525;28;20408;-86
2022/07/01 09:24:40;;;;;;;7.82;6.80;;;25.10;99.90;;;;;;5008616;28;20403;-87
2022/07/01 09:27:10;;;;;;;9.10;6.57;;;25.30;99.90;;;;;;4999432;28;20406;-87
2022/07/01 09:29:39;;;;;;;9.65;6.57;;;25.30;99.90;;;;;;5004808;28;20409;-87
2022/07/01 09:32:09;;;;;;;9.15;6.45;;;25.30;99.90;;;;;;5005093;28;20412;-87
2022/07/01 09:34:43;;;;;;;7.78;6.53;;;25.20;99.90;;;;;;5009909;28;20415;-86
2022/07/01 09:37:13;;;;;;;7.40;6.50;;;25.20;99.90;;;;;;5011049;28;20412;-86
2022/07/01 09:39:48;;;;;;;7.35;6.57;;;25.30;99.90;;;;;;4992045;28;20455;-87
2022/07/01 09:42:18;;;;;;;8.48;6.38;;;25.30;99.90;;;;;;4993955;28;20415;-86
2022/07/01 09:44:57;;;;;;;8.38;7.00;;;25.30;99.90;;;;;;5008801;28;20416;-87
2022/07/01 09:47:33;;;;;;;9.63;7.10;;;25.40;99.90;;;;;;5007360;28;20467;-85
2022/07/01 09:50:02;;;;;;;10.18;6.90;;;25.50;99.90;;;;;;5007678;28;20388;-87
2022/07/01 09:52:30;;;;;;;11.85;6.93;;;25.60;99.90;;;;;;4996624;28;20411;-86
2022/07/01 09:55:05;;;;;;;9.70;6.53;;;25.60;99.90;;;;;;4999120;28;20436;-87
2022/07/01 09:57:33;;;;;;;8.63;7.28;;;25.70;99.90;;;;;;5010186;28;20407;-86
2022/07/01 10:00:01;;;;;;;11.70;7.18;;;25.70;99.90;;;;;;4997892;28;20416;-86
2022/07/01 10:02:33;;;;;;;9.18;7.35;;;25.80;99.90;;;;;;4998753;28;20485;-86
2022/07/01 10:05:11;;;;;;;11.80;7.50;;;25.70;99.90;;;;;;4995265;28;20471;-87
2022/07/01 10:08:03;;;;;;;8.88;7.93;;;25.90;99.90;;;;;;5002534;28;20407;-86
2022/07/01 10:10:51;;;;;;;8.18;7.35;;;26.00;99.90;;;;;;5019077;28;20401;-87
2022/07/01 10:13:25;;;;;;;9.40;7.43;;;26.00;99.90;;;;;;5012328;28;20457;-86
2022/07/01 10:15:56;;;;;;;8.68;6.65;;;26.10;99.90;;;;;;5011380;28;20397;-85
2022/07/01 10:18:28;;;;;;;9.55;7.38;;;26.20;99.90;;;;;;5000259;28;20416;-86
2022/07/01 10:20:58;;;;;;;9.65;7.50;;;26.20;99.90;;;;;;5000162;28;20886;-87
2022/07/01 10:23:37;;;;;;;8.77;7.40;;;26.30;99.90;;;;;;5004194;28;20414;-86
2022/07/01 10:26:07;;;;;;;9.60;7.70;;;26.30;99.90;;;;;;5000048;28;20404;-86
2022/07/01 10:28:42;;;;;;;9.10;8.15;;;26.30;99.90;;;;;;5004743;28;20775;-85
2022/07/01 10:31:18;;;;;;;9.23;7.82;;;26.30;99.90;;;;;;5004662;28;20409;-86
2022/07/01 10:33:52;;;;;;;8.68;7.78;;;26.10;99.90;;;;;;4998610;28;20401;-86
2022/07/01 10:36:31;;;;;;;8.77;7.47;;;26.10;99.90;;;;;;5010844;28;20404;-85
2022/07/01 10:39:08;;;;;;;8.65;7.72;;;26.20;99.90;;;;;;4998880;28;20412;-86
2022/07/01 10:42:02;;;;;;;9.90;7.57;;;26.30;99.90;;;;;;5000674;28;20436;-84
2022/07/01 10:45:07;;;;;;;11.27;8.20;;;26.40;99.90;;;;;;5008382;28;20482;-87
2022/07/01 10:47:35;;;;;;;12.48;9.23;;;26.40;99.90;;;;;;5009206;28;20419;-86
2022/07/01 10:50:08;;;;;;;9.90;8.43;;;26.30;99.90;;;;;;5001681;28;20405;-84
2022/07/01 10:52:38;;;;;;;10.20;8.95;;;26.10;99.90;;;;;;5010353;28;20679;-85
2022/07/01 10:55:08;;;;;;;11.50;9.33;;;26.10;99.90;;;;;;5002638;28;20404;-85
2022/07/01 10:57:39;;;;;;;12.18;9.27;;;26.20;99.90;;;;;;5013242;28;20407;-84
2022/07/01 11:00:07;;;;;;;11.50;8.68;;;26.40;99.90;;;;;;5002625;28;20426;-85
2022/07/01 11:02:37;;;;;;;10.75;9.05;;;26.40;99.90;;;;;;5002854;28;20384;-85
2022/07/01 11:05:10;;;;;;;10.00;9.07;;;26.60;99.90;;;;;;4999513;28;20760;-84
2022/07/01 11:07:45;;;;;;;10.07;8.98;;;26.70;99.90;;;;;;5003824;28;20398;-85
2022/07/01 11:10:18;;;;;;;10.18;9.13;;;26.80;99.90;;;;;;5003186;28;20805;-84
2022/07/01 11:12:48;;;;;;;10.25;8.85;;;26.80;99.90;;;;;;5011237;28;20410;-85
2022/07/01 11:15:17;;;;;;;9.27;8.43;;;26.90;99.90;;;;;;5000013;28;20408;-86
2022/07/01 11:17:48;;;;;;;9.93;8.88;;;26.90;99.90;;;;;;5002444;28;20412;-84
2022/07/01 11:20:17;;;;;;;10.25;8.90;;;26.90;99.90;;;;;;5001744;28;20459;-83
2022/07/01 11:22:51;;;;;;;10.07;8.57;;;26.90;99.90;;;;;;4998986;28;20411;-86
2022/07/01 11:25:21;;;;;;;10.45;8.75;;;27.10;99.90;;;;;;4995098;28;20420;-85
2022/07/01 11:27:50;;;;;;;10.45;9.35;;;27.10;99.90;;;;;;5008355;28;20739;-85
2022/07/01 11:30:20;;;;;;;9.80;8.80;;;27.10;99.90;;;;;;5002390;28;20764;-85
2022/07/01 11:33:00;;;;;;;9.80;8.80;;;27.20;99.90;;;;;;5007235;28;20417;-84
2022/07/01 11:41:25;;;;;;;10.85;9.75;;;27.40;99.90;;;;;;5005684;28;20412;-84
2022/07/01 11:43:54;;;;;;;11.23;8.33;;;27.30;99.90;;;;;;5018942;28;20489;-84
2022/07/01 11:46:23;;;;;;;10.77;8.50;;;27.20;99.90;;;;;;5009587;28;20401;-84
2022/07/01 11:48:53;;;;;;;9.38;8.30;;;27.10;99.90;;;;;;5007715;28;20383;-83
2022/07/01 11:51:22;;;;;;;10.35;8.18;;;27.00;99.90;;;;;;5004245;28;21091;-83
2022/07/01 11:53:54;;;;;;;11.25;8.10;;;27.10;99.90;;;;;;5000801;28;20482;-84
2022/07/01 11:56:30;;;;;;;11.02;8.00;;;27.30;99.90;;;;;;4983759;28;20408;-83
2022/07/01 11:58:59;;;;;;;8.93;7.97;;;27.40;99.90;;;;;;5003996;28;20886;-84
2022/07/01 12:01:34;;;;;;;8.80;7.90;;;27.50;99.90;;;;;;4998071;28;20914;-83
2022/07/01 12:04:05;;;;;;;8.77;7.70;;;27.60;99.90;;;;;;4997037;28;20403;-83
2022/07/01 12:06:35;;;;;;;8.82;7.15;;;27.70;99.90;;;;;;5013816;28;20409;-84
2022/07/01 12:09:03;;;;;;;9.00;7.10;;;27.60;99.90;;;;;;4997655;28;20885;-85
2022/07/01 12:11:32;;;;;;;8.52;7.68;;;27.60;99.90;;;;;;4997621;28;20536;-83
2022/07/01 12:14:06;;;;;;;10.77;8.07;;;27.70;99.90;;;;;;4998403;28;20506;-83
2022/07/01 12:16:41;;;;;;;9.70;7.60;;;27.80;99.90;;;;;;4997408;28;20421;-85
2022/07/01 12:19:10;;;;;;;10.98;7.40;;;27.80;99.90;;;;;;5002566;28;20451;-84
2022/07/01 12:21:51;;;;;;;8.45;7.50;;;28.00;99.90;;;;;;4993307;28;20759;-86
2022/07/01 12:24:21;;;;;;;7.93;7.13;;;28.00;99.90;;;;;;5001163;28;20385;-84
2022/07/01 12:26:59;;;;;;;9.27;7.20;;;28.00;99.90;;;;;;4995125;28;21066;-85
2022/07/01 12:29:30;;;;;;;10.57;7.55;;;28.10;99.90;;;;;;4994442;28;20400;-85
2022/07/01 12:32:05;;;;;;;9.82;8.18;;;28.20;99.90;;;;;;5012836;28;20410;-85
2022/07/01 12:34:55;;;;;;;9.77;7.10;;;28.20;99.90;;;;;;4999970;28;20388;-86
2022/07/01 12:37:31;;;;;;;8.63;7.63;;;28.20;99.90;;;;;;4997231;28;20404;-84
2022/07/01 12:40:08;;;;;;;10.75;7.60;;;28.30;99.90;;;;;;5004308;28;20449;-86
2022/07/01 12:42:42;;;;;;;12.25;7.97;;;28.40;99.90;;;;;;5002075;28;20440;-85
2022/07/01 12:45:13;;;;;;;10.35;7.63;;;28.40;99.90;;;;;;5001457;28;20505;-83
2022/07/01 12:47:49;;;;;;;8.95;7.10;;;28.40;99.90;;;;;;5009835;28;20403;-85
2022/07/01 12:50:22;;;;;;;8.98;7.30;;;28.30;99.90;;;;;;5002792;28;20407;-84
2022/07/01 12:53:11;;;;;;;8.38;7.57;;;28.40;99.90;;;;;;4993958;28;20403;-85
2022/07/01 12:55:40;;;;;;;9.77;7.63;;;28.50;99.90;;;;;;5009882;28;20458;-85
2022/07/01 12:58:14;;;;;;;10.40;7.85;;;28.60;99.90;;;;;;5005789;28;20896;-84
2022/07/01 13:00:45;;;;;;;9.75;7.75;;;28.40;99.90;;;;;;4995487;28;20411;-85
2022/07/01 13:03:13;;;;;;;10.40;7.93;;;28.50;99.90;;;;;;4993558;28;20397;-85
2022/07/01 13:05:41;;;;;;;9.97;8.23;;;28.50;99.90;;;;;;4997861;28;20396;-84
2022/07/01 13:08:10;;;;;;;9.93;7.88;;;28.70;99.90;;;;;;5000761;28;20419;-85
2022/07/01 13:10:38;;;;;;;9.67;8.10;;;28.60;99.90;;;;;;5007286;28;20443;-84